Aeroporto :
LOGIN :

Iscrizione | Disclaimer

   EN    FR    IT 

 










Sommario :    VFR   VFR Marginale   IFR   IFR Intensivo   IFR Molto Intensivo
Visibilità : 
Base nubi : 
>= 8 km
>= 3000ft
5 / 8 km
1000 / 3000 ft
1500m / 5 km
500 / 1000 ft
800 / 1500m
200 / 500 ft
< 800m
< 200 ft
Simboli :   Temporali  Nebbia  Neve Forte  Precipitazioni Forti  Vento > 20 kt
SIGMETs :   Varie  Temporali  Ghiacco  Turbolenza  Onda orograficha  Ceneri Vulcaniche







- Altitudine del aeroporto : 1585 ft
- Codice IATA : SIR


LSGS - Sion

ULTIMO METAR :
  • 260520Z 06003KT CAVOK 21/13 Q1026

METARs OBSOLETI :
  • 260450Z 08004KT CAVOK 20/13 Q1026
  • 260420Z AUTO 07002KT CAVOK 21/13 Q1026
  • 260350Z AUTO 07004KT CAVOK 20/13 Q1025
  • 260320Z AUTO 06001KT CAVOK 21/13 Q1025
  • 260250Z AUTO 04002KT CAVOK 21/14 Q1025

TAF TAF LSGS
Valido dal 26 a 06 ore il 26 a 15 ore UTC


260525Z 2606/2615 VRB03KT CAVOK
TEMPO 2612/2615 25012KT
Nessun NOTAM noto per questo aeroporto.



MetMap, La meteo Aeronautica in un colpo d'occhio ! - Copyright ORBIFLY Dicembre 2007 - Disclaimer

ORBIFLY MET'MAP TEAM :

Programmazione e sviluppo : Alexandra Zaïnal
Concezione e sviluppo : Baudouin d'Aumeries
Co-Programmazione e sviluppo : Marc-Olivier Méhu
Supporto tecnico e logistico : Manuel Goepfert
Aiuto per la traduzione : Arnaldo La Scala

Contatto : metmap@orbifly.com




FONTI E CREDITI :

   NOAA